Relevés horaires Gornergrat (Suisse)


Relevés horaires à Gornergrat - Vendredi 15 Déc. 2023
Heure UTC1 Température [°C] Vent [km/h] Hum. [%] Pres.4 [hPa] Visi. [Km] Nébu. [octa] Préc.5 [mm] Cond.
2m. Res. Ros. Dir.2 Vit. Moy. Raf.3
23:00 -5.7 -12.2 -30.5 N 18.5 -- 38.9 12 700(0.8/3h) -- -- -- --
22:00 -6.4 -11.3 -29.6 N 11.1 -- 44.4 14 700(1.2/3h) -- -- -- --
21:00 -7.2 -14 -27.3 NNE 18.5 -- 51.9 18 700(1.1/3h) -- -- -- --
20:00 -7.3 -13.4 -28.2 NNE 14.8 -- 38.9 17 700(0.9/3h) -- -- -- --
19:00 -7.6 -14.9 -27.9 N 20.4 -- 51.9 18 700(1.0/3h) -- -- -- --
18:00 -8.1 -16.7 -27.2 NNE 27.8 -- 46.3 20 700(1.2/3h) -- -- -- --
17:00 -8.1 -15.9 -28.8 NNE 22.2 -- 46.3 17 700(1.2/3h) -- -- -- --
16:00 -8.6 -16.5 -27.6 NNE 22.2 -- 44.4 20 700(1.2/3h) -- -- -- --
15:00 -7.4 -14.7 -29.0 N 20.4 -- 37.0 16 700(0.8/3h) -- -- -- --
14:00 -7.1 -13.9 -27.4 N 18.5 -- 35.2 18 700(0.7/3h) -- -- -- --
13:00 -6.6 -11 -26.3 NNO 9.3 -- 25.9 19 700(0.6/3h) -- -- -- --
12:00 -6.6 -10.2 -23.1 NNE 7.4 -- 35.2 25 700(1.0/3h) -- -- -- --
11:00 -7.3 -11.8 -21.2 E 9.3 -- 29.6 32 700(1.6/3h) -- -- -- --
10:00 -8.5 -14.4 -22.9 NNE 13.0 -- 35.2 30 700(1.9/3h) -- -- -- --
09:00 -8.9 -13.7 -23.4 N 9.3 -- 29.6 30 700(2.0/3h) -- -- -- --
08:00 -11.4 -18.4 -20.4 NNE 14.8 -- 29.6 47 700(1.3/3h) -- -- -- --
07:00 -11.2 -15.6 -20.3 ESE 7.4 -- 24.1 47 700(0.9/3h) -- -- -- --
06:00 -11.8 -17.8 -21.1 N 11.1 -- 27.8 46 700(0.8/3h) -- -- -- --
05:00 -11.5 -16 -21.7 ENE 7.4 -- 20.4 42 700(1.2/3h) -- -- -- --
04:00 -11.2 -16.4 -19.5 N 9.3 -- 27.8 50 700(1.3/3h) -- -- -- --
03:00 -11.7 -16.2 -16.3 N 7.4 -- 27.8 69 700(1.3/3h) -- -- -- --
02:00 -11.0 -17.9 -15.9 NNO 14.8 -- 20.4 67 700(1.1/3h) -- -- -- --
01:00 -11.4 -15.9 -15.3 NNO 7.4 -- 20.4 73 700(1.3/3h) -- -- -- --
00:00 -11.3 -11.3 -15.4 N 3.7 -- 24.1 72 700(1.1/3h) -- -- -- --

1 Coordinated Universal Time. Actuellement il est 22:00 locale et 20:00 UTC.

2 Le vent souffle depuis la direction indiquée vers la direction oposée.

3 Les rafales max. sont disponible 40 min après l'heure du relevé.

4 Pour les stations d'altitude (plus de 600m) le géopotentiel du niveau le plus proche de la pression obligatoire est indiqué.

5 Les stations disposant d'un diffuseur peuvent indiquer "trace". Cela signifie que des précipitations ont touchés le sol mais que la quantité est inférieure à 0.1 mm.

Copyright

Les données affichées sur cette page sont la propriété exclusive de Météo Suisse.

Récapitulatif de la journée
Température [°C] Vent [km/h] Ensoleillement4 [h] Precipitations totale5 [mm] Pression [Hpa]
Min1 Max.2 Moy.3 Max. Min Max.
-12.6 -6.0 0 51.9 7 h 18 min 0 700.0 700.0

1 Température minimale relevée entre 18:00 UTC la veille et 18:00 UTC le jour donné.

2 Température maximale relevée entre 06:00 UTC le jour donné et 06:00 UTC le lendemain.

3 Vent moyen de la journée basé sur les relevés horaires.

4 Ensoleillement en heures relevé entre 06:00 UTC la veille et 06:00 UTC le jour donné.

5 Précipitations totales tombées entre 06:00 UTC la jour donné et 06:00 UTC le lendemain.

Graphiques horaires